sensor_id;sensor_type;location;lat;lon;timestamp;P1;durP1;ratioP1;P2;durP2;ratioP2
13309;SDS011;6723;48.256;16.402;2023-11-18T00:01:24;1.80;;;1.60;;
13309;SDS011;6723;48.256;16.402;2023-11-18T00:03:50;2.13;;;1.60;;
13309;SDS011;6723;48.256;16.402;2023-11-18T00:06:18;2.03;;;1.67;;
13309;SDS011;6723;48.256;16.402;2023-11-18T00:08:44;2.40;;;1.60;;
13309;SDS011;6723;48.256;16.402;2023-11-18T00:11:10;2.00;;;1.63;;
13309;SDS011;6723;48.256;16.402;2023-11-18T00:13:36;1.57;;;1.47;;
13309;SDS011;6723;48.256;16.402;2023-11-18T00:16:04;2.90;;;1.97;;
13309;SDS011;6723;48.256;16.402;2023-11-18T00:18:31;3.07;;;1.97;;
13309;SDS011;6723;48.256;16.402;2023-11-18T00:20:57;2.47;;;1.60;;
13309;SDS011;6723;48.256;16.402;2023-11-18T00:23:23;2.57;;;1.80;;
13309;SDS011;6723;48.256;16.402;2023-11-18T00:25:52;2.30;;;1.80;;
13309;SDS011;6723;48.256;16.402;2023-11-18T00:28:18;3.20;;;1.90;;
13309;SDS011;6723;48.256;16.402;2023-11-18T00:30:45;2.53;;;1.90;;
13309;SDS011;6723;48.256;16.402;2023-11-18T00:33:11;3.13;;;1.87;;
13309;SDS011;6723;48.256;16.402;2023-11-18T00:35:37;2.30;;;1.80;;
13309;SDS011;6723;48.256;16.402;2023-11-18T00:38:03;2.40;;;1.53;;
13309;SDS011;6723;48.256;16.402;2023-11-18T00:40:31;1.90;;;1.70;;
13309;SDS011;6723;48.256;16.402;2023-11-18T00:42:57;2.30;;;1.90;;
13309;SDS011;6723;48.256;16.402;2023-11-18T00:45:23;2.33;;;1.70;;
13309;SDS011;6723;48.256;16.402;2023-11-18T00:47:49;1.97;;;1.60;;
13309;SDS011;6723;48.256;16.402;2023-11-18T00:50:15;2.37;;;1.50;;
13309;SDS011;6723;48.256;16.402;2023-11-18T00:52:40;1.80;;;1.60;;
13309;SDS011;6723;48.256;16.402;2023-11-18T00:55:07;1.70;;;1.40;;
13309;SDS011;6723;48.256;16.402;2023-11-18T00:57:35;3.07;;;1.70;;
13309;SDS011;6723;48.256;16.402;2023-11-18T01:00:05;2.93;;;1.70;;
13309;SDS011;6723;48.256;16.402;2023-11-18T01:02:39;1.40;;;1.30;;
13309;SDS011;6723;48.256;16.402;2023-11-18T01:05:06;2.63;;;1.50;;
13309;SDS011;6723;48.256;16.402;2023-11-18T01:07:34;3.53;;;1.60;;
13309;SDS011;6723;48.256;16.402;2023-11-18T01:10:01;2.03;;;1.40;;
13309;SDS011;6723;48.256;16.402;2023-11-18T01:12:27;2.00;;;1.80;;
13309;SDS011;6723;48.256;16.402;2023-11-18T01:14:53;1.90;;;1.70;;
13309;SDS011;6723;48.256;16.402;2023-11-18T01:17:19;1.57;;;1.47;;
13309;SDS011;6723;48.256;16.402;2023-11-18T01:19:47;2.20;;;1.53;;
13309;SDS011;6723;48.256;16.402;2023-11-18T01:22:13;1.90;;;1.60;;
13309;SDS011;6723;48.256;16.402;2023-11-18T01:24:39;1.73;;;1.53;;
13309;SDS011;6723;48.256;16.402;2023-11-18T01:27:04;1.93;;;1.60;;
13309;SDS011;6723;48.256;16.402;2023-11-18T01:29:33;1.87;;;1.67;;
13309;SDS011;6723;48.256;16.402;2023-11-18T01:31:59;1.57;;;1.33;;
13309;SDS011;6723;48.256;16.402;2023-11-18T01:34:25;2.90;;;1.50;;
13309;SDS011;6723;48.256;16.402;2023-11-18T01:36:53;2.10;;;1.77;;
13309;SDS011;6723;48.256;16.402;2023-11-18T01:39:18;2.33;;;1.50;;
13309;SDS011;6723;48.256;16.402;2023-11-18T01:41:44;2.07;;;1.87;;
13309;SDS011;6723;48.256;16.402;2023-11-18T01:44:11;2.17;;;1.67;;
13309;SDS011;6723;48.256;16.402;2023-11-18T01:46:43;3.13;;;1.67;;
13309;SDS011;6723;48.256;16.402;2023-11-18T01:49:10;2.30;;;1.70;;
13309;SDS011;6723;48.256;16.402;2023-11-18T01:51:40;4.03;;;1.60;;
13309;SDS011;6723;48.256;16.402;2023-11-18T01:54:10;2.00;;;1.80;;
13309;SDS011;6723;48.256;16.402;2023-11-18T01:56:41;2.30;;;1.80;;
13309;SDS011;6723;48.256;16.402;2023-11-18T01:59:09;2.43;;;1.57;;
13309;SDS011;6723;48.256;16.402;2023-11-18T02:01:40;2.20;;;1.80;;
13309;SDS011;6723;48.256;16.402;2023-11-18T02:04:08;1.57;;;1.47;;
13309;SDS011;6723;48.256;16.402;2023-11-18T02:06:35;2.10;;;1.80;;
13309;SDS011;6723;48.256;16.402;2023-11-18T02:09:01;2.77;;;1.70;;
13309;SDS011;6723;48.256;16.402;2023-11-18T02:11:29;2.27;;;1.80;;
13309;SDS011;6723;48.256;16.402;2023-11-18T02:14:00;2.50;;;2.00;;
13309;SDS011;6723;48.256;16.402;2023-11-18T02:16:36;1.90;;;1.70;;
13309;SDS011;6723;48.256;16.402;2023-11-18T02:19:03;3.13;;;1.63;;
13309;SDS011;6723;48.256;16.402;2023-11-18T02:21:34;2.13;;;1.80;;
13309;SDS011;6723;48.256;16.402;2023-11-18T02:24:03;2.20;;;1.70;;
13309;SDS011;6723;48.256;16.402;2023-11-18T02:26:29;1.90;;;1.80;;
13309;SDS011;6723;48.256;16.402;2023-11-18T02:28:55;3.40;;;2.00;;
13309;SDS011;6723;48.256;16.402;2023-11-18T02:31:23;3.30;;;1.90;;
13309;SDS011;6723;48.256;16.402;2023-11-18T02:34:00;2.07;;;1.87;;
13309;SDS011;6723;48.256;16.402;2023-11-18T02:36:39;2.37;;;1.90;;
13309;SDS011;6723;48.256;16.402;2023-11-18T02:39:24;3.97;;;1.83;;
13309;SDS011;6723;48.256;16.402;2023-11-18T02:42:04;5.33;;;1.87;;
13309;SDS011;6723;48.256;16.402;2023-11-18T02:44:33;2.57;;;1.70;;
13309;SDS011;6723;48.256;16.402;2023-11-18T02:47:01;3.10;;;2.03;;
13309;SDS011;6723;48.256;16.402;2023-11-18T02:49:32;2.40;;;1.90;;
13309;SDS011;6723;48.256;16.402;2023-11-18T02:52:00;2.80;;;2.10;;
13309;SDS011;6723;48.256;16.402;2023-11-18T02:54:25;2.40;;;2.20;;
13309;SDS011;6723;48.256;16.402;2023-11-18T02:56:51;3.40;;;1.73;;
13309;SDS011;6723;48.256;16.402;2023-11-18T02:59:17;3.07;;;1.83;;
13309;SDS011;6723;48.256;16.402;2023-11-18T03:01:43;2.20;;;1.97;;
13309;SDS011;6723;48.256;16.402;2023-11-18T03:04:10;1.90;;;1.80;;
13309;SDS011;6723;48.256;16.402;2023-11-18T03:06:35;3.47;;;1.80;;
13309;SDS011;6723;48.256;16.402;2023-11-18T03:09:03;2.13;;;1.93;;
13309;SDS011;6723;48.256;16.402;2023-11-18T03:11:32;2.47;;;2.27;;
13309;SDS011;6723;48.256;16.402;2023-11-18T03:13:59;2.90;;;1.97;;
13309;SDS011;6723;48.256;16.402;2023-11-18T03:16:25;2.27;;;2.00;;
13309;SDS011;6723;48.256;16.402;2023-11-18T03:18:51;2.30;;;2.00;;
13309;SDS011;6723;48.256;16.402;2023-11-18T03:21:17;2.30;;;1.80;;
13309;SDS011;6723;48.256;16.402;2023-11-18T03:23:45;2.80;;;1.93;;
13309;SDS011;6723;48.256;16.402;2023-11-18T03:26:10;2.37;;;1.83;;
13309;SDS011;6723;48.256;16.402;2023-11-18T03:28:37;2.23;;;1.90;;
13309;SDS011;6723;48.256;16.402;2023-11-18T03:31:03;2.53;;;1.90;;
13309;SDS011;6723;48.256;16.402;2023-11-18T03:33:30;1.87;;;1.53;;
13309;SDS011;6723;48.256;16.402;2023-11-18T03:35:56;1.70;;;1.60;;
13309;SDS011;6723;48.256;16.402;2023-11-18T03:38:22;2.13;;;1.40;;
13309;SDS011;6723;48.256;16.402;2023-11-18T03:40:48;2.07;;;1.60;;
13309;SDS011;6723;48.256;16.402;2023-11-18T03:43:15;1.90;;;1.70;;
13309;SDS011;6723;48.256;16.402;2023-11-18T03:45:40;2.13;;;1.63;;
13309;SDS011;6723;48.256;16.402;2023-11-18T03:48:07;1.97;;;1.70;;
13309;SDS011;6723;48.256;16.402;2023-11-18T03:50:33;1.90;;;1.70;;
13309;SDS011;6723;48.256;16.402;2023-11-18T03:52:59;3.77;;;2.10;;
13309;SDS011;6723;48.256;16.402;2023-11-18T03:55:29;1.87;;;1.60;;
13309;SDS011;6723;48.256;16.402;2023-11-18T03:57:55;1.93;;;1.57;;
13309;SDS011;6723;48.256;16.402;2023-11-18T04:00:22;1.87;;;1.77;;
13309;SDS011;6723;48.256;16.402;2023-11-18T04:02:57;2.47;;;1.70;;
13309;SDS011;6723;48.256;16.402;2023-11-18T04:05:24;1.73;;;1.63;;
13309;SDS011;6723;48.256;16.402;2023-11-18T04:07:50;1.67;;;1.57;;
13309;SDS011;6723;48.256;16.402;2023-11-18T04:10:16;2.50;;;1.97;;
13309;SDS011;6723;48.256;16.402;2023-11-18T04:12:44;1.80;;;1.50;;
13309;SDS011;6723;48.256;16.402;2023-11-18T04:15:12;1.80;;;1.70;;
13309;SDS011;6723;48.256;16.402;2023-11-18T04:17:38;2.90;;;1.60;;
13309;SDS011;6723;48.256;16.402;2023-11-18T04:20:05;2.17;;;1.90;;
13309;SDS011;6723;48.256;16.402;2023-11-18T04:22:42;2.80;;;1.70;;
13309;SDS011;6723;48.256;16.402;2023-11-18T04:25:10;3.30;;;1.60;;
13309;SDS011;6723;48.256;16.402;2023-11-18T04:27:40;1.70;;;1.60;;
13309;SDS011;6723;48.256;16.402;2023-11-18T04:30:06;2.10;;;1.50;;
13309;SDS011;6723;48.256;16.402;2023-11-18T04:32:34;2.20;;;1.57;;
13309;SDS011;6723;48.256;16.402;2023-11-18T04:35:00;1.67;;;1.40;;
13309;SDS011;6723;48.256;16.402;2023-11-18T04:37:36;2.33;;;1.50;;
13309;SDS011;6723;48.256;16.402;2023-11-18T04:40:03;3.30;;;1.67;;
13309;SDS011;6723;48.256;16.402;2023-11-18T04:42:31;1.63;;;1.50;;
13309;SDS011;6723;48.256;16.402;2023-11-18T04:45:00;1.70;;;1.60;;
13309;SDS011;6723;48.256;16.402;2023-11-18T04:47:25;1.80;;;1.70;;
13309;SDS011;6723;48.256;16.402;2023-11-18T04:49:52;1.60;;;1.50;;
13309;SDS011;6723;48.256;16.402;2023-11-18T04:52:17;2.70;;;1.83;;
13309;SDS011;6723;48.256;16.402;2023-11-18T04:54:43;1.97;;;1.60;;
13309;SDS011;6723;48.256;16.402;2023-11-18T04:57:13;1.93;;;1.47;;
13309;SDS011;6723;48.256;16.402;2023-11-18T04:59:39;2.20;;;1.60;;
13309;SDS011;6723;48.256;16.402;2023-11-18T05:02:06;1.83;;;1.60;;
13309;SDS011;6723;48.256;16.402;2023-11-18T05:04:32;1.77;;;1.60;;
13309;SDS011;6723;48.256;16.402;2023-11-18T05:06:58;2.00;;;1.70;;
13309;SDS011;6723;48.256;16.402;2023-11-18T05:09:24;1.93;;;1.60;;
13309;SDS011;6723;48.256;16.402;2023-11-18T05:11:50;2.97;;;1.87;;
13309;SDS011;6723;48.256;16.402;2023-11-18T05:14:16;1.80;;;1.70;;
13309;SDS011;6723;48.256;16.402;2023-11-18T05:16:42;1.93;;;1.63;;
13309;SDS011;6723;48.256;16.402;2023-11-18T05:19:07;2.10;;;1.90;;
13309;SDS011;6723;48.256;16.402;2023-11-18T05:21:33;2.07;;;1.87;;
13309;SDS011;6723;48.256;16.402;2023-11-18T05:23:59;2.10;;;1.80;;
13309;SDS011;6723;48.256;16.402;2023-11-18T05:26:25;2.60;;;1.77;;
13309;SDS011;6723;48.256;16.402;2023-11-18T05:28:52;2.40;;;2.20;;
13309;SDS011;6723;48.256;16.402;2023-11-18T05:31:19;1.83;;;1.70;;
13309;SDS011;6723;48.256;16.402;2023-11-18T05:33:45;1.83;;;1.73;;
13309;SDS011;6723;48.256;16.402;2023-11-18T05:36:16;2.43;;;1.83;;
13309;SDS011;6723;48.256;16.402;2023-11-18T05:38:51;1.50;;;1.40;;
13309;SDS011;6723;48.256;16.402;2023-11-18T05:41:17;2.17;;;1.93;;
13309;SDS011;6723;48.256;16.402;2023-11-18T05:43:53;1.93;;;1.83;;
13309;SDS011;6723;48.256;16.402;2023-11-18T05:46:25;2.63;;;1.80;;
13309;SDS011;6723;48.256;16.402;2023-11-18T05:48:55;1.90;;;1.80;;
13309;SDS011;6723;48.256;16.402;2023-11-18T05:51:25;2.73;;;1.83;;
13309;SDS011;6723;48.256;16.402;2023-11-18T05:53:52;2.37;;;1.90;;
13309;SDS011;6723;48.256;16.402;2023-11-18T05:56:18;1.83;;;1.73;;
13309;SDS011;6723;48.256;16.402;2023-11-18T05:58:47;2.10;;;1.77;;
13309;SDS011;6723;48.256;16.402;2023-11-18T06:01:13;2.23;;;1.87;;
13309;SDS011;6723;48.256;16.402;2023-11-18T06:03:39;2.20;;;1.70;;
13309;SDS011;6723;48.256;16.402;2023-11-18T06:06:10;2.10;;;1.80;;
13309;SDS011;6723;48.256;16.402;2023-11-18T06:08:37;2.20;;;2.00;;
13309;SDS011;6723;48.256;16.402;2023-11-18T06:11:11;2.20;;;2.00;;
13309;SDS011;6723;48.256;16.402;2023-11-18T06:13:42;2.10;;;1.90;;
13309;SDS011;6723;48.256;16.402;2023-11-18T06:16:14;2.80;;;1.80;;
13309;SDS011;6723;48.256;16.402;2023-11-18T06:18:41;3.83;;;2.20;;
13309;SDS011;6723;48.256;16.402;2023-11-18T06:21:15;1.93;;;1.73;;
13309;SDS011;6723;48.256;16.402;2023-11-18T06:23:44;2.97;;;2.17;;
13309;SDS011;6723;48.256;16.402;2023-11-18T06:26:11;2.90;;;2.27;;
13309;SDS011;6723;48.256;16.402;2023-11-18T06:28:38;3.43;;;2.20;;
13309;SDS011;6723;48.256;16.402;2023-11-18T06:31:05;3.30;;;2.23;;
13309;SDS011;6723;48.256;16.402;2023-11-18T06:33:43;4.90;;;2.37;;
13309;SDS011;6723;48.256;16.402;2023-11-18T06:38:39;3.37;;;2.67;;
13309;SDS011;6723;48.256;16.402;2023-11-18T06:41:06;3.33;;;2.70;;
13309;SDS011;6723;48.256;16.402;2023-11-18T06:43:36;3.63;;;2.53;;
13309;SDS011;6723;48.256;16.402;2023-11-18T06:46:24;2.63;;;2.23;;
13309;SDS011;6723;48.256;16.402;2023-11-18T06:48:51;4.00;;;2.30;;
13309;SDS011;6723;48.256;16.402;2023-11-18T06:51:19;3.00;;;2.20;;
13309;SDS011;6723;48.256;16.402;2023-11-18T06:53:49;2.80;;;2.40;;
13309;SDS011;6723;48.256;16.402;2023-11-18T06:56:16;4.10;;;2.33;;
13309;SDS011;6723;48.256;16.402;2023-11-18T06:58:42;3.83;;;2.47;;
13309;SDS011;6723;48.256;16.402;2023-11-18T07:01:09;2.60;;;2.20;;
13309;SDS011;6723;48.256;16.402;2023-11-18T07:03:40;2.80;;;2.60;;
13309;SDS011;6723;48.256;16.402;2023-11-18T07:06:07;3.90;;;2.77;;
13309;SDS011;6723;48.256;16.402;2023-11-18T07:08:35;2.93;;;2.47;;
13309;SDS011;6723;48.256;16.402;2023-11-18T07:11:01;4.90;;;2.30;;
13309;SDS011;6723;48.256;16.402;2023-11-18T07:13:28;3.40;;;2.60;;
13309;SDS011;6723;48.256;16.402;2023-11-18T07:15:54;3.57;;;2.97;;
13309;SDS011;6723;48.256;16.402;2023-11-18T07:18:25;3.57;;;2.70;;
13309;SDS011;6723;48.256;16.402;2023-11-18T07:20:51;3.87;;;2.80;;
13309;SDS011;6723;48.256;16.402;2023-11-18T07:23:18;3.63;;;3.00;;
13309;SDS011;6723;48.256;16.402;2023-11-18T07:25:45;7.13;;;2.67;;
13309;SDS011;6723;48.256;16.402;2023-11-18T07:28:11;3.83;;;2.53;;
13309;SDS011;6723;48.256;16.402;2023-11-18T07:30:41;4.63;;;2.67;;
13309;SDS011;6723;48.256;16.402;2023-11-18T07:33:18;4.00;;;2.70;;
13309;SDS011;6723;48.256;16.402;2023-11-18T07:35:45;3.37;;;2.90;;
13309;SDS011;6723;48.256;16.402;2023-11-18T07:38:15;4.17;;;2.67;;
13309;SDS011;6723;48.256;16.402;2023-11-18T07:40:43;3.07;;;2.40;;
13309;SDS011;6723;48.256;16.402;2023-11-18T07:43:14;3.93;;;2.47;;
13309;SDS011;6723;48.256;16.402;2023-11-18T07:45:40;3.50;;;2.63;;
13309;SDS011;6723;48.256;16.402;2023-11-18T07:48:08;3.33;;;2.50;;
13309;SDS011;6723;48.256;16.402;2023-11-18T07:50:35;3.90;;;2.60;;
13309;SDS011;6723;48.256;16.402;2023-11-18T07:53:02;4.97;;;2.70;;
13309;SDS011;6723;48.256;16.402;2023-11-18T07:55:28;5.23;;;3.40;;
13309;SDS011;6723;48.256;16.402;2023-11-18T07:57:55;3.67;;;2.10;;
13309;SDS011;6723;48.256;16.402;2023-11-18T08:00:21;3.10;;;2.60;;
13309;SDS011;6723;48.256;16.402;2023-11-18T08:02:49;2.80;;;2.50;;
13309;SDS011;6723;48.256;16.402;2023-11-18T08:05:14;3.07;;;2.70;;
13309;SDS011;6723;48.256;16.402;2023-11-18T08:07:40;3.57;;;2.93;;
13309;SDS011;6723;48.256;16.402;2023-11-18T08:10:09;4.43;;;2.50;;
13309;SDS011;6723;48.256;16.402;2023-11-18T08:12:38;4.20;;;3.60;;
13309;SDS011;6723;48.256;16.402;2023-11-18T08:15:05;2.67;;;2.30;;
13309;SDS011;6723;48.256;16.402;2023-11-18T08:17:32;2.30;;;2.07;;
13309;SDS011;6723;48.256;16.402;2023-11-18T08:19:59;3.37;;;2.27;;
13309;SDS011;6723;48.256;16.402;2023-11-18T08:22:25;2.33;;;1.90;;
13309;SDS011;6723;48.256;16.402;2023-11-18T08:24:50;3.17;;;2.47;;
13309;SDS011;6723;48.256;16.402;2023-11-18T08:27:16;4.43;;;2.70;;
13309;SDS011;6723;48.256;16.402;2023-11-18T08:29:42;3.70;;;2.30;;
13309;SDS011;6723;48.256;16.402;2023-11-18T08:32:08;3.10;;;2.13;;
13309;SDS011;6723;48.256;16.402;2023-11-18T08:34:35;2.77;;;2.20;;
13309;SDS011;6723;48.256;16.402;2023-11-18T08:37:03;3.07;;;2.33;;
13309;SDS011;6723;48.256;16.402;2023-11-18T08:39:29;3.10;;;2.13;;
13309;SDS011;6723;48.256;16.402;2023-11-18T08:41:55;3.40;;;2.50;;
13309;SDS011;6723;48.256;16.402;2023-11-18T08:44:22;3.47;;;2.73;;
13309;SDS011;6723;48.256;16.402;2023-11-18T08:46:49;3.80;;;2.77;;
13309;SDS011;6723;48.256;16.402;2023-11-18T08:49:18;3.47;;;2.70;;
13309;SDS011;6723;48.256;16.402;2023-11-18T08:51:51;2.33;;;2.10;;
13309;SDS011;6723;48.256;16.402;2023-11-18T08:54:24;3.97;;;2.40;;
13309;SDS011;6723;48.256;16.402;2023-11-18T08:57:03;2.20;;;2.00;;
13309;SDS011;6723;48.256;16.402;2023-11-18T08:59:45;4.30;;;2.37;;
13309;SDS011;6723;48.256;16.402;2023-11-18T09:02:11;3.93;;;2.07;;
13309;SDS011;6723;48.256;16.402;2023-11-18T09:04:40;2.90;;;2.00;;
13309;SDS011;6723;48.256;16.402;2023-11-18T09:07:08;2.50;;;2.30;;
13309;SDS011;6723;48.256;16.402;2023-11-18T09:09:35;2.80;;;2.00;;
13309;SDS011;6723;48.256;16.402;2023-11-18T09:12:01;2.87;;;2.00;;
13309;SDS011;6723;48.256;16.402;2023-11-18T09:14:28;3.77;;;2.37;;
13309;SDS011;6723;48.256;16.402;2023-11-18T09:16:53;2.40;;;2.20;;
13309;SDS011;6723;48.256;16.402;2023-11-18T09:19:21;3.10;;;2.00;;
13309;SDS011;6723;48.256;16.402;2023-11-18T09:21:47;2.23;;;2.03;;
13309;SDS011;6723;48.256;16.402;2023-11-18T09:24:14;2.30;;;2.10;;
13309;SDS011;6723;48.256;16.402;2023-11-18T09:26:45;2.27;;;1.97;;
13309;SDS011;6723;48.256;16.402;2023-11-18T09:29:18;2.83;;;2.33;;
13309;SDS011;6723;48.256;16.402;2023-11-18T09:31:48;2.47;;;2.00;;
13309;SDS011;6723;48.256;16.402;2023-11-18T09:34:14;3.30;;;2.47;;
13309;SDS011;6723;48.256;16.402;2023-11-18T09:36:45;2.10;;;1.90;;
13309;SDS011;6723;48.256;16.402;2023-11-18T09:39:10;2.67;;;1.60;;
13309;SDS011;6723;48.256;16.402;2023-11-18T09:41:57;3.17;;;2.50;;
13309;SDS011;6723;48.256;16.402;2023-11-18T09:44:27;3.83;;;2.83;;
13309;SDS011;6723;48.256;16.402;2023-11-18T09:46:55;2.63;;;2.43;;
13309;SDS011;6723;48.256;16.402;2023-11-18T09:49:31;4.40;;;2.60;;
13309;SDS011;6723;48.256;16.402;2023-11-18T09:52:04;3.70;;;2.57;;
13309;SDS011;6723;48.256;16.402;2023-11-18T09:57:26;3.43;;;2.30;;
13309;SDS011;6723;48.256;16.402;2023-11-18T10:00:03;3.17;;;2.50;;
13309;SDS011;6723;48.256;16.402;2023-11-18T10:02:54;2.60;;;2.20;;
13309;SDS011;6723;48.256;16.402;2023-11-18T10:05:26;5.73;;;2.57;;
13309;SDS011;6723;48.256;16.402;2023-11-18T10:07:52;2.90;;;2.60;;
13309;SDS011;6723;48.256;16.402;2023-11-18T10:10:19;3.00;;;2.50;;
13309;SDS011;6723;48.256;16.402;2023-11-18T10:12:49;2.70;;;2.50;;
13309;SDS011;6723;48.256;16.402;2023-11-18T10:15:39;4.30;;;2.53;;
13309;SDS011;6723;48.256;16.402;2023-11-18T10:18:05;3.20;;;2.80;;
13309;SDS011;6723;48.256;16.402;2023-11-18T10:20:53;4.27;;;2.97;;
13309;SDS011;6723;48.256;16.402;2023-11-18T10:23:22;3.67;;;2.70;;
13309;SDS011;6723;48.256;16.402;2023-11-18T10:25:49;4.23;;;3.00;;
13309;SDS011;6723;48.256;16.402;2023-11-18T10:28:22;4.77;;;3.27;;
13309;SDS011;6723;48.256;16.402;2023-11-18T10:30:57;3.33;;;3.03;;
13309;SDS011;6723;48.256;16.402;2023-11-18T10:33:31;3.90;;;3.00;;
13309;SDS011;6723;48.256;16.402;2023-11-18T10:35:58;3.40;;;2.87;;
13309;SDS011;6723;48.256;16.402;2023-11-18T10:38:31;3.67;;;3.07;;
13309;SDS011;6723;48.256;16.402;2023-11-18T10:41:04;3.50;;;2.67;;
13309;SDS011;6723;48.256;16.402;2023-11-18T10:43:31;3.30;;;2.57;;
13309;SDS011;6723;48.256;16.402;2023-11-18T10:46:07;3.60;;;3.30;;
13309;SDS011;6723;48.256;16.402;2023-11-18T10:48:38;3.03;;;2.73;;
13309;SDS011;6723;48.256;16.402;2023-11-18T10:51:08;3.33;;;3.03;;
13309;SDS011;6723;48.256;16.402;2023-11-18T10:53:37;3.07;;;2.53;;
13309;SDS011;6723;48.256;16.402;2023-11-18T10:56:06;3.57;;;3.00;;
13309;SDS011;6723;48.256;16.402;2023-11-18T10:58:45;3.50;;;2.93;;
13309;SDS011;6723;48.256;16.402;2023-11-18T11:01:11;3.13;;;2.83;;
13309;SDS011;6723;48.256;16.402;2023-11-18T11:03:53;3.57;;;2.73;;
13309;SDS011;6723;48.256;16.402;2023-11-18T11:06:26;3.30;;;2.70;;
13309;SDS011;6723;48.256;16.402;2023-11-18T11:09:01;3.60;;;2.80;;
13309;SDS011;6723;48.256;16.402;2023-11-18T11:11:43;3.37;;;3.03;;
13309;SDS011;6723;48.256;16.402;2023-11-18T11:14:20;3.13;;;2.83;;
13309;SDS011;6723;48.256;16.402;2023-11-18T11:16:51;3.03;;;2.70;;
13309;SDS011;6723;48.256;16.402;2023-11-18T11:22:09;3.50;;;3.20;;
13309;SDS011;6723;48.256;16.402;2023-11-18T11:25:42;3.50;;;2.97;;
13309;SDS011;6723;48.256;16.402;2023-11-18T11:28:08;3.53;;;2.97;;
13309;SDS011;6723;48.256;16.402;2023-11-18T11:30:50;4.00;;;3.17;;
13309;SDS011;6723;48.256;16.402;2023-11-18T11:33:29;3.97;;;3.53;;
13309;SDS011;6723;48.256;16.402;2023-11-18T11:36:07;3.83;;;3.40;;
13309;SDS011;6723;48.256;16.402;2023-11-18T11:38:37;4.13;;;3.00;;
13309;SDS011;6723;48.256;16.402;2023-11-18T11:41:04;4.63;;;3.27;;
13309;SDS011;6723;48.256;16.402;2023-11-18T11:43:33;4.33;;;3.30;;
13309;SDS011;6723;48.256;16.402;2023-11-18T11:46:01;3.33;;;2.90;;
13309;SDS011;6723;48.256;16.402;2023-11-18T11:48:35;4.57;;;3.83;;
13309;SDS011;6723;48.256;16.402;2023-11-18T11:51:20;5.97;;;3.50;;
13309;SDS011;6723;48.256;16.402;2023-11-18T11:54:11;4.70;;;3.77;;
13309;SDS011;6723;48.256;16.402;2023-11-18T11:56:46;4.50;;;3.57;;
13309;SDS011;6723;48.256;16.402;2023-11-18T11:59:18;4.10;;;3.53;;
13309;SDS011;6723;48.256;16.402;2023-11-18T12:02:03;3.43;;;3.13;;
13309;SDS011;6723;48.256;16.402;2023-11-18T12:04:36;4.33;;;3.60;;
13309;SDS011;6723;48.256;16.402;2023-11-18T12:07:08;3.57;;;3.27;;
13309;SDS011;6723;48.256;16.402;2023-11-18T12:09:35;4.10;;;3.10;;
13309;SDS011;6723;48.256;16.402;2023-11-18T12:12:05;4.30;;;3.60;;
13309;SDS011;6723;48.256;16.402;2023-11-18T12:14:50;4.70;;;4.00;;
13309;SDS011;6723;48.256;16.402;2023-11-18T12:18:10;4.30;;;3.73;;
13309;SDS011;6723;48.256;16.402;2023-11-18T12:20:39;4.20;;;3.43;;
13309;SDS011;6723;48.256;16.402;2023-11-18T12:23:21;4.97;;;3.83;;
13309;SDS011;6723;48.256;16.402;2023-11-18T12:25:51;4.87;;;3.70;;
13309;SDS011;6723;48.256;16.402;2023-11-18T12:30:56;3.60;;;3.30;;
13309;SDS011;6723;48.256;16.402;2023-11-18T12:33:24;3.30;;;3.00;;
13309;SDS011;6723;48.256;16.402;2023-11-18T12:41:36;4.83;;;4.07;;
13309;SDS011;6723;48.256;16.402;2023-11-18T12:46:59;2.83;;;2.60;;
13309;SDS011;6723;48.256;16.402;2023-11-18T12:49:40;2.90;;;2.60;;
13309;SDS011;6723;48.256;16.402;2023-11-18T12:52:07;6.73;;;4.83;;
13309;SDS011;6723;48.256;16.402;2023-11-18T12:54:35;3.97;;;3.43;;
13309;SDS011;6723;48.256;16.402;2023-11-18T12:57:08;4.20;;;3.33;;
13309;SDS011;6723;48.256;16.402;2023-11-18T12:59:39;3.60;;;3.30;;
13309;SDS011;6723;48.256;16.402;2023-11-18T13:02:09;3.23;;;2.93;;
13309;SDS011;6723;48.256;16.402;2023-11-18T13:04:43;4.00;;;2.97;;
13309;SDS011;6723;48.256;16.402;2023-11-18T13:07:13;3.73;;;3.30;;
13309;SDS011;6723;48.256;16.402;2023-11-18T13:09:39;4.17;;;3.10;;
13309;SDS011;6723;48.256;16.402;2023-11-18T13:12:08;3.20;;;2.90;;
13309;SDS011;6723;48.256;16.402;2023-11-18T13:14:34;5.03;;;3.10;;
13309;SDS011;6723;48.256;16.402;2023-11-18T13:17:05;4.20;;;3.00;;
13309;SDS011;6723;48.256;16.402;2023-11-18T13:19:36;3.43;;;3.13;;
13309;SDS011;6723;48.256;16.402;2023-11-18T13:22:03;6.13;;;3.63;;
13309;SDS011;6723;48.256;16.402;2023-11-18T13:24:36;3.77;;;3.43;;
13309;SDS011;6723;48.256;16.402;2023-11-18T13:27:06;4.03;;;3.47;;
13309;SDS011;6723;48.256;16.402;2023-11-18T13:29:37;3.40;;;3.10;;
13309;SDS011;6723;48.256;16.402;2023-11-18T13:32:07;3.10;;;2.70;;
13309;SDS011;6723;48.256;16.402;2023-11-18T13:34:36;3.40;;;3.10;;
13309;SDS011;6723;48.256;16.402;2023-11-18T13:37:07;3.80;;;3.00;;
13309;SDS011;6723;48.256;16.402;2023-11-18T13:39:42;3.00;;;2.80;;
13309;SDS011;6723;48.256;16.402;2023-11-18T13:44:46;3.43;;;2.97;;
13309;SDS011;6723;48.256;16.402;2023-11-18T13:47:13;4.13;;;2.93;;
13309;SDS011;6723;48.256;16.402;2023-11-18T13:49:42;4.37;;;3.17;;
13309;SDS011;6723;48.256;16.402;2023-11-18T13:52:09;3.53;;;3.10;;
13309;SDS011;6723;48.256;16.402;2023-11-18T13:54:41;3.50;;;3.17;;
13309;SDS011;6723;48.256;16.402;2023-11-18T13:57:10;4.70;;;3.40;;
13309;SDS011;6723;48.256;16.402;2023-11-18T13:59:37;4.00;;;3.20;;
13309;SDS011;6723;48.256;16.402;2023-11-18T14:02:11;3.37;;;3.07;;
13309;SDS011;6723;48.256;16.402;2023-11-18T14:04:39;3.03;;;2.73;;
13309;SDS011;6723;48.256;16.402;2023-11-18T14:07:04;3.77;;;3.10;;
13309;SDS011;6723;48.256;16.402;2023-11-18T14:09:31;4.90;;;3.90;;
13309;SDS011;6723;48.256;16.402;2023-11-18T14:12:02;3.47;;;3.07;;
13309;SDS011;6723;48.256;16.402;2023-11-18T14:14:31;3.53;;;3.10;;
13309;SDS011;6723;48.256;16.402;2023-11-18T14:16:57;2.97;;;2.67;;
13309;SDS011;6723;48.256;16.402;2023-11-18T14:19:24;7.00;;;3.30;;
13309;SDS011;6723;48.256;16.402;2023-11-18T14:21:51;3.30;;;3.00;;
13309;SDS011;6723;48.256;16.402;2023-11-18T14:24:17;3.60;;;3.30;;
13309;SDS011;6723;48.256;16.402;2023-11-18T14:26:43;3.70;;;2.83;;
13309;SDS011;6723;48.256;16.402;2023-11-18T14:29:09;3.93;;;3.00;;
13309;SDS011;6723;48.256;16.402;2023-11-18T14:31:36;3.47;;;3.00;;
13309;SDS011;6723;48.256;16.402;2023-11-18T14:34:03;5.97;;;3.40;;
13309;SDS011;6723;48.256;16.402;2023-11-18T14:36:29;4.83;;;4.07;;
13309;SDS011;6723;48.256;16.402;2023-11-18T14:38:56;4.43;;;3.63;;
13309;SDS011;6723;48.256;16.402;2023-11-18T14:41:23;4.17;;;3.27;;
13309;SDS011;6723;48.256;16.402;2023-11-18T14:43:54;4.63;;;3.20;;
13309;SDS011;6723;48.256;16.402;2023-11-18T14:46:20;4.20;;;3.40;;
13309;SDS011;6723;48.256;16.402;2023-11-18T14:48:47;3.87;;;3.37;;
13309;SDS011;6723;48.256;16.402;2023-11-18T14:51:13;4.80;;;3.27;;
13309;SDS011;6723;48.256;16.402;2023-11-18T14:53:39;4.10;;;3.30;;
13309;SDS011;6723;48.256;16.402;2023-11-18T14:56:05;3.93;;;3.33;;
13309;SDS011;6723;48.256;16.402;2023-11-18T14:58:32;4.23;;;3.63;;
13309;SDS011;6723;48.256;16.402;2023-11-18T15:00:58;3.77;;;3.27;;
13309;SDS011;6723;48.256;16.402;2023-11-18T15:03:25;5.50;;;3.90;;
13309;SDS011;6723;48.256;16.402;2023-11-18T15:05:51;4.97;;;4.27;;
13309;SDS011;6723;48.256;16.402;2023-11-18T15:08:17;3.53;;;2.60;;
13309;SDS011;6723;48.256;16.402;2023-11-18T15:10:42;3.23;;;2.87;;
13309;SDS011;6723;48.256;16.402;2023-11-18T15:13:09;3.20;;;2.77;;
13309;SDS011;6723;48.256;16.402;2023-11-18T15:15:42;3.33;;;2.63;;
13309;SDS011;6723;48.256;16.402;2023-11-18T15:18:12;2.90;;;2.57;;
13309;SDS011;6723;48.256;16.402;2023-11-18T15:20:48;3.00;;;2.70;;
13309;SDS011;6723;48.256;16.402;2023-11-18T15:23:15;2.73;;;2.53;;